createdAt,value
2019-01-28T00:00:23.866Z,35.20
2019-01-28T00:02:30.666Z,28.90
2019-01-28T00:04:36.911Z,33.10
2019-01-28T00:06:43.305Z,26.33
2019-01-28T00:08:49.725Z,31.13
2019-01-28T00:10:58.566Z,34.17
2019-01-28T00:13:04.865Z,32.70
2019-01-28T00:15:13.006Z,31.77
2019-01-28T00:17:19.107Z,35.90
2019-01-28T00:19:25.748Z,29.53
2019-01-28T00:21:32.425Z,30.63
2019-01-28T00:23:39.347Z,34.33
2019-01-28T00:25:45.986Z,31.60
2019-01-28T00:27:53.866Z,31.50
2019-01-28T00:29:59.885Z,36.73
2019-01-28T00:32:06.455Z,31.00
2019-01-28T00:34:12.867Z,28.23
2019-01-28T00:36:19.167Z,36.97
2019-01-28T00:38:25.845Z,31.90
2019-01-28T00:40:33.126Z,33.00
2019-01-28T00:42:39.705Z,32.53
2019-01-28T00:44:46.028Z,31.43
2019-01-28T00:46:53.806Z,33.10
2019-01-28T00:49:01.485Z,28.10
2019-01-28T00:51:07.725Z,35.60
2019-01-28T00:53:14.665Z,28.83
2019-01-28T00:55:21.925Z,27.40
2019-01-28T00:57:29.285Z,28.93
2019-01-28T00:59:35.465Z,32.67
2019-01-28T01:01:41.826Z,30.70
2019-01-28T01:03:48.073Z,32.67
2019-01-28T01:05:54.545Z,28.90
2019-01-28T01:08:00.706Z,28.60
2019-01-28T01:10:12.026Z,33.27
2019-01-28T01:12:18.445Z,30.70
2019-01-28T01:14:24.614Z,37.13
2019-01-28T01:16:31.105Z,26.70
2019-01-28T01:18:37.594Z,31.23
2019-01-28T01:20:43.946Z,31.10
2019-01-28T01:22:50.788Z,30.17
2019-01-28T01:24:59.305Z,40.37
2019-01-28T01:27:05.846Z,35.77
2019-01-28T01:29:12.053Z,34.10
2019-01-28T01:31:18.886Z,31.43
2019-01-28T01:33:25.145Z,30.33
2019-01-28T01:35:33.513Z,28.53
2019-01-28T01:37:40.226Z,28.60
2019-01-28T01:39:47.964Z,30.60
2019-01-28T01:41:54.365Z,29.70
2019-01-28T01:44:00.625Z,29.10
2019-01-28T01:46:08.486Z,33.33
2019-01-28T01:48:14.927Z,36.30
2019-01-28T01:50:22.850Z,33.23
2019-01-28T01:52:30.065Z,28.57
2019-01-28T01:54:36.510Z,30.67
2019-01-28T01:56:43.205Z,38.03
2019-01-28T01:58:49.647Z,38.73
2019-01-28T02:00:56.105Z,36.70
2019-01-28T02:03:03.825Z,38.43
2019-01-28T02:05:10.826Z,35.13
2019-01-28T02:07:17.126Z,34.70
2019-01-28T02:09:23.606Z,36.67
2019-01-28T02:11:30.065Z,39.00
2019-01-28T02:13:36.566Z,39.50
2019-01-28T02:15:44.345Z,38.23
2019-01-28T02:17:51.345Z,35.67
2019-01-28T02:19:57.727Z,36.53
2019-01-28T02:22:04.006Z,35.03
2019-01-28T02:24:10.186Z,33.50
2019-01-28T02:26:16.506Z,37.03
2019-01-28T02:28:22.805Z,39.93
2019-01-28T02:30:29.155Z,38.00
2019-01-28T02:32:35.366Z,33.80
2019-01-28T02:34:41.565Z,36.67
2019-01-28T02:36:50.087Z,35.40
2019-01-28T02:38:56.927Z,39.03
2019-01-28T02:41:03.147Z,36.43
2019-01-28T02:43:10.525Z,33.73
2019-01-28T02:45:18.106Z,36.83
2019-01-28T02:47:24.554Z,39.83
2019-01-28T02:49:31.686Z,40.20
2019-01-28T02:51:38.731Z,40.67
2019-01-28T02:53:46.166Z,35.20
2019-01-28T02:55:54.253Z,40.03
2019-01-28T02:58:00.666Z,36.57
2019-01-28T03:00:20.105Z,37.13
2019-01-28T03:02:26.425Z,34.27
2019-01-28T03:04:34.246Z,42.23
2019-01-28T03:06:40.786Z,34.93
2019-01-28T03:08:47.105Z,36.70
2019-01-28T03:10:54.687Z,48.07
2019-01-28T03:13:03.625Z,34.67
2019-01-28T03:15:11.145Z,36.93
2019-01-28T03:17:17.385Z,44.23
2019-01-28T03:19:23.774Z,36.60
2019-01-28T03:21:30.385Z,36.90
2019-01-28T03:23:37.006Z,39.03
2019-01-28T03:25:43.267Z,37.27
2019-01-28T03:27:49.535Z,38.27
2019-01-28T03:29:56.165Z,35.40
2019-01-28T03:32:02.705Z,43.27
2019-01-28T03:34:09.387Z,39.67
2019-01-28T03:36:16.108Z,37.87
2019-01-28T03:38:22.625Z,44.23
2019-01-28T03:40:29.067Z,47.80
2019-01-28T03:42:35.987Z,43.60
2019-01-28T03:44:42.257Z,46.13
2019-01-28T03:46:48.527Z,41.20
2019-01-28T03:48:54.873Z,42.87
2019-01-28T03:51:01.129Z,37.27
2019-01-28T03:53:10.486Z,47.97
2019-01-28T03:55:16.848Z,41.53
2019-01-28T03:57:23.289Z,44.93
2019-01-28T03:59:29.927Z,45.53
2019-01-28T04:01:37.165Z,40.40
2019-01-28T04:03:43.845Z,47.00
2019-01-28T04:05:50.065Z,46.30
2019-01-28T04:07:56.565Z,40.13
2019-01-28T04:10:02.865Z,46.53
2019-01-28T04:12:09.585Z,41.90
2019-01-28T04:14:16.865Z,47.60
2019-01-28T04:16:23.208Z,43.20
2019-01-28T04:18:29.654Z,44.70
2019-01-28T04:20:36.265Z,53.13
2019-01-28T04:22:42.913Z,46.20
2019-01-28T04:24:49.486Z,52.80
2019-01-28T04:26:56.766Z,40.23
2019-01-28T04:29:03.133Z,57.47
2019-01-28T04:31:09.706Z,45.13
2019-01-28T04:33:16.301Z,50.30
2019-01-28T04:35:22.746Z,43.73
2019-01-28T04:37:29.147Z,50.33
2019-01-28T04:39:37.266Z,47.20
2019-01-28T04:41:43.527Z,44.53
2019-01-28T04:43:50.025Z,50.33
2019-01-28T04:45:56.352Z,51.40
2019-01-28T04:48:02.746Z,50.00
2019-01-28T04:50:13.105Z,50.60
2019-01-28T04:52:20.453Z,50.00
2019-01-28T04:54:27.534Z,45.80
2019-01-28T04:56:34.146Z,55.93
2019-01-28T04:58:41.265Z,49.93
2019-01-28T05:00:47.490Z,56.33
2019-01-28T05:02:53.745Z,47.60
2019-01-28T05:05:01.288Z,50.10
2019-01-28T05:07:07.935Z,53.33
2019-01-28T05:09:14.467Z,48.47
2019-01-28T05:11:20.981Z,47.73
2019-01-28T05:13:27.225Z,42.37
2019-01-28T05:15:33.886Z,49.17
2019-01-28T05:17:40.007Z,50.40
2019-01-28T05:19:46.545Z,47.97
2019-01-28T05:21:52.647Z,51.23
2019-01-28T05:23:59.226Z,50.40
2019-01-28T05:26:05.849Z,47.13
2019-01-28T05:28:13.045Z,50.23
2019-01-28T05:30:25.045Z,50.03
2019-01-28T05:32:31.425Z,50.23
2019-01-28T05:34:37.827Z,45.17
2019-01-28T05:36:45.493Z,47.20
2019-01-28T05:38:51.746Z,45.50
2019-01-28T05:40:58.246Z,52.23
2019-01-28T05:43:04.961Z,46.57
2019-01-28T05:45:17.866Z,40.23
2019-01-28T05:47:24.605Z,49.27
2019-01-28T05:49:31.657Z,50.87
2019-01-28T05:51:38.513Z,50.07
2019-01-28T05:53:44.967Z,49.43
2019-01-28T05:55:52.306Z,48.17
2019-01-28T05:57:58.885Z,51.83
2019-01-28T06:00:12.646Z,52.03
2019-01-28T06:02:19.266Z,52.27
2019-01-28T06:04:25.810Z,49.23
2019-01-28T06:06:32.506Z,49.90
2019-01-28T06:08:39.106Z,50.87
2019-01-28T06:10:45.926Z,50.47
2019-01-28T06:12:52.186Z,74.43
2019-01-28T06:14:58.506Z,61.27
2019-01-28T06:17:06.286Z,79.67
2019-01-28T06:19:14.905Z,53.83
2019-01-28T06:21:25.228Z,52.40
2019-01-28T06:23:33.565Z,49.47
2019-01-28T06:25:40.087Z,54.27
2019-01-28T06:27:46.448Z,49.73
2019-01-28T06:29:53.185Z,57.80
2019-01-28T06:32:01.526Z,50.57
2019-01-28T06:34:07.627Z,56.80
2019-01-28T06:36:14.186Z,52.83
2019-01-28T06:38:22.479Z,50.07
2019-01-28T06:40:35.385Z,50.43
2019-01-28T06:42:41.690Z,47.60
2019-01-28T06:44:47.867Z,51.10
2019-01-28T06:46:54.369Z,50.83
2019-01-28T06:49:00.767Z,57.03
2019-01-28T06:51:07.247Z,45.37
2019-01-28T06:53:13.881Z,53.63
2019-01-28T06:55:20.985Z,48.37
2019-01-28T06:57:28.945Z,54.23
2019-01-28T06:59:36.241Z,58.63
2019-01-28T07:01:43.017Z,95.23
2019-01-28T07:03:49.885Z,79.47
2019-01-28T07:05:55.986Z,66.00
2019-01-28T07:08:02.286Z,72.57
2019-01-28T07:10:11.166Z,60.73
2019-01-28T07:12:18.845Z,67.73
2019-01-28T07:14:25.342Z,59.90
2019-01-28T07:16:31.385Z,52.17
2019-01-28T07:18:39.886Z,46.93
2019-01-28T07:20:46.405Z,62.00
2019-01-28T07:22:53.846Z,76.13
2019-01-28T07:25:00.385Z,108.30
2019-01-28T07:27:08.567Z,98.70
2019-01-28T07:29:15.052Z,77.97
2019-01-28T07:31:21.606Z,95.03
2019-01-28T07:33:30.585Z,77.13
2019-01-28T07:35:37.254Z,77.77
2019-01-28T07:37:43.873Z,86.47
2019-01-28T07:39:50.248Z,62.73
2019-01-28T07:41:57.366Z,63.83
2019-01-28T07:44:04.325Z,66.43
2019-01-28T07:46:11.927Z,72.30
2019-01-28T07:48:19.845Z,76.43
2019-01-28T07:50:26.329Z,62.17
2019-01-28T07:52:32.894Z,61.17
2019-01-28T07:54:39.375Z,50.40
2019-01-28T07:56:51.865Z,48.20
2019-01-28T07:58:58.426Z,51.43
2019-01-28T08:01:04.789Z,47.13
2019-01-28T08:03:11.346Z,55.07
2019-01-28T08:05:19.645Z,49.90
2019-01-28T08:07:26.175Z,53.47
2019-01-28T08:09:32.686Z,62.37
2019-01-28T08:11:39.565Z,52.20
2019-01-28T08:13:46.126Z,58.47
2019-01-28T08:15:52.666Z,59.40
2019-01-28T08:17:59.386Z,54.53
2019-01-28T08:20:11.933Z,66.57
2019-01-28T08:22:18.805Z,98.30
2019-01-28T08:24:26.945Z,103.33
2019-01-28T08:26:33.645Z,64.07
2019-01-28T08:28:40.106Z,77.83
2019-01-28T08:30:46.768Z,91.93
2019-01-28T08:32:53.546Z,147.93
2019-01-28T08:35:00.726Z,110.40
2019-01-28T08:37:06.972Z,127.83
2019-01-28T08:39:13.528Z,111.83
2019-01-28T08:41:19.865Z,139.00
2019-01-28T08:43:26.471Z,95.20
2019-01-28T08:45:32.665Z,86.00
2019-01-28T08:47:40.031Z,77.57
2019-01-28T08:49:47.767Z,93.60
2019-01-28T08:51:53.794Z,95.10
2019-01-28T08:54:00.084Z,78.40
2019-01-28T08:56:06.426Z,73.93
2019-01-28T08:58:13.646Z,77.77
2019-01-28T09:00:23.128Z,79.93
2019-01-28T09:02:29.586Z,76.70
2019-01-28T09:04:36.406Z,76.43
2019-01-28T09:06:42.725Z,69.53
2019-01-28T09:08:49.107Z,66.50
2019-01-28T09:10:55.566Z,61.23
2019-01-28T09:13:02.226Z,67.63
2019-01-28T09:15:13.293Z,61.60
2019-01-28T09:17:19.665Z,67.27
2019-01-28T09:19:26.066Z,64.27
2019-01-28T09:21:32.827Z,65.20
2019-01-28T09:23:39.425Z,63.90
2019-01-28T09:25:47.325Z,64.83
2019-01-28T09:27:53.667Z,66.73
2019-01-28T09:30:00.049Z,105.87
2019-01-28T09:32:07.846Z,67.20
2019-01-28T09:34:14.390Z,65.13
2019-01-28T09:36:22.587Z,77.87
2019-01-28T09:38:28.805Z,66.30
2019-01-28T09:40:38.727Z,56.90
2019-01-28T09:42:45.434Z,57.07
2019-01-28T09:44:52.327Z,58.53
2019-01-28T09:46:59.566Z,64.00
2019-01-28T09:49:05.712Z,65.30
2019-01-28T09:51:12.346Z,50.80
2019-01-28T09:53:18.866Z,65.60
2019-01-28T09:55:25.234Z,69.10
2019-01-28T09:57:31.425Z,57.07
2019-01-28T09:59:38.108Z,60.40
2019-01-28T10:01:44.827Z,65.83
2019-01-28T10:03:51.186Z,65.57
2019-01-28T10:05:58.346Z,65.40
2019-01-28T10:08:05.188Z,81.20
2019-01-28T10:10:15.986Z,98.27
2019-01-28T10:12:22.267Z,90.00
2019-01-28T10:14:28.734Z,99.70
2019-01-28T10:16:40.828Z,106.33
2019-01-28T10:18:52.526Z,98.03
2019-01-28T10:20:59.345Z,91.83
2019-01-28T10:23:05.829Z,79.87
2019-01-28T10:25:12.046Z,82.03
2019-01-28T10:27:19.867Z,81.57
2019-01-28T10:29:27.666Z,84.20
2019-01-28T10:31:35.089Z,71.67
2019-01-28T10:33:43.006Z,69.57
2019-01-28T10:35:49.487Z,66.00
2019-01-28T10:37:56.107Z,66.87
2019-01-28T10:40:03.007Z,93.10
2019-01-28T10:42:10.206Z,89.20
2019-01-28T10:44:17.949Z,80.23
2019-01-28T10:46:24.486Z,69.60
2019-01-28T10:48:31.026Z,63.57
2019-01-28T10:50:38.466Z,59.10
2019-01-28T10:52:45.734Z,76.57
2019-01-28T10:54:53.792Z,70.40
2019-01-28T10:57:02.547Z,65.83
2019-01-28T10:59:10.405Z,72.27
2019-01-28T11:01:19.749Z,81.23
2019-01-28T11:03:29.226Z,71.13
2019-01-28T11:05:36.895Z,73.87
2019-01-28T11:07:44.145Z,71.37
2019-01-28T11:09:50.524Z,71.43
2019-01-28T11:11:56.833Z,80.30
2019-01-28T11:14:03.050Z,95.87
2019-01-28T11:16:10.228Z,99.60
2019-01-28T11:18:20.557Z,88.73
2019-01-28T11:20:26.731Z,80.87
2019-01-28T11:22:32.916Z,86.20
2019-01-28T11:24:39.290Z,87.30
2019-01-28T11:26:47.112Z,100.20
2019-01-28T11:28:53.771Z,74.77
2019-01-28T11:31:01.352Z,78.77
2019-01-28T11:33:08.308Z,82.93
2019-01-28T11:35:15.838Z,74.83
2019-01-28T11:37:22.432Z,75.90
2019-01-28T11:39:28.773Z,77.27
2019-01-28T11:41:36.049Z,77.07
2019-01-28T11:43:42.490Z,76.73
2019-01-28T11:46:00.448Z,68.80
2019-01-28T11:48:09.061Z,76.83
2019-01-28T11:50:18.369Z,73.13
2019-01-28T11:52:24.869Z,72.17
2019-01-28T11:54:31.190Z,73.73
2019-01-28T11:56:38.633Z,73.73
2019-01-28T11:58:46.609Z,74.40
2019-01-28T12:00:58.293Z,74.70
2019-01-28T12:03:04.668Z,64.43
2019-01-28T12:05:12.209Z,70.63
2019-01-28T12:07:18.669Z,87.73
2019-01-28T12:09:25.289Z,138.53
2019-01-28T12:11:33.488Z,105.73
2019-01-28T12:13:41.448Z,80.30
2019-01-28T12:15:47.731Z,89.67
2019-01-28T12:17:54.388Z,96.50
2019-01-28T12:20:01.943Z,93.37
2019-01-28T12:22:09.252Z,91.10
2019-01-28T12:24:16.232Z,92.57
2019-01-28T12:26:22.999Z,77.07
2019-01-28T12:28:29.469Z,78.30
2019-01-28T12:30:39.291Z,112.70
2019-01-28T12:32:47.455Z,85.93
2019-01-28T12:34:54.313Z,76.07
2019-01-28T12:37:01.330Z,84.87
2019-01-28T12:39:08.991Z,73.07
2019-01-28T12:41:17.484Z,62.50
2019-01-28T12:43:23.949Z,66.47
2019-01-28T12:45:30.793Z,67.17
2019-01-28T12:47:43.829Z,78.53
2019-01-28T12:49:53.988Z,78.83
2019-01-28T12:52:00.808Z,66.73
2019-01-28T12:54:08.868Z,70.50
2019-01-28T12:56:15.617Z,73.37
2019-01-28T12:58:22.393Z,68.47
2019-01-28T13:00:34.450Z,64.30
2019-01-28T13:02:40.991Z,75.30
2019-01-28T13:04:47.148Z,77.47
2019-01-28T13:06:54.408Z,69.20
2019-01-28T13:09:01.017Z,76.87
2019-01-28T13:11:09.348Z,71.37
2019-01-28T13:13:15.509Z,71.57
2019-01-28T13:15:25.988Z,75.53
2019-01-28T13:17:33.309Z,78.07
2019-01-28T13:19:40.184Z,83.47
2019-01-28T13:21:46.567Z,80.80
2019-01-28T13:23:54.451Z,74.47
2019-01-28T13:26:02.528Z,71.03
2019-01-28T13:28:10.233Z,80.33
2019-01-28T13:30:31.028Z,73.13
2019-01-28T13:32:38.163Z,74.87
2019-01-28T13:34:45.448Z,64.93
2019-01-28T13:36:52.367Z,72.67
2019-01-28T13:38:58.729Z,71.37
2019-01-28T13:41:05.368Z,72.93
2019-01-28T13:43:12.369Z,76.10
2019-01-28T13:45:21.549Z,73.17
2019-01-28T13:47:28.889Z,75.33
2019-01-28T13:49:38.437Z,76.17
2019-01-28T13:51:44.069Z,71.53
2019-01-28T13:53:51.970Z,76.27
2019-01-28T13:55:58.229Z,74.60
2019-01-28T13:58:04.929Z,76.60
2019-01-28T14:00:24.229Z,76.37
2019-01-28T14:02:30.690Z,76.93
2019-01-28T14:04:40.054Z,86.80
2019-01-28T14:06:46.928Z,91.30
2019-01-28T14:08:53.208Z,97.17
2019-01-28T14:10:59.550Z,82.70
2019-01-28T14:13:06.048Z,79.13
2019-01-28T14:15:17.008Z,84.20
2019-01-28T14:17:25.448Z,90.23
2019-01-28T14:19:31.808Z,83.97
2019-01-28T14:21:39.408Z,89.03
2019-01-28T14:23:45.930Z,83.73
2019-01-28T14:25:52.290Z,91.33
2019-01-28T14:31:19.392Z,104.10
2019-01-28T14:33:26.988Z,105.67
2019-01-28T14:35:33.649Z,84.93
2019-01-28T14:37:40.209Z,87.00
2019-01-28T14:39:46.808Z,87.80
2019-01-28T14:41:52.989Z,96.50
2019-01-28T14:43:59.468Z,92.73
2019-01-28T14:46:05.975Z,100.07
2019-01-28T14:48:13.068Z,87.73
2019-01-28T14:50:24.776Z,93.17
2019-01-28T14:52:31.487Z,92.73
2019-01-28T14:54:39.108Z,91.73
2019-01-28T14:56:45.812Z,94.77
2019-01-28T14:58:53.468Z,95.93
2019-01-28T15:01:00.149Z,110.87
2019-01-28T15:03:06.836Z,113.40
2019-01-28T15:05:13.968Z,111.03
2019-01-28T15:07:21.691Z,113.57
2019-01-28T15:09:28.270Z,101.13
2019-01-28T15:11:35.007Z,100.77
2019-01-28T15:13:42.989Z,122.33
2019-01-28T15:15:49.488Z,116.57
2019-01-28T15:17:57.010Z,107.10
2019-01-28T15:20:03.831Z,110.37
2019-01-28T15:22:10.528Z,107.70
2019-01-28T15:24:16.768Z,121.57
2019-01-28T15:26:23.112Z,114.97
2019-01-28T15:28:29.608Z,133.47
2019-01-28T15:30:36.437Z,140.43
2019-01-28T15:32:54.784Z,162.90
2019-01-28T15:35:01.248Z,140.83
2019-01-28T15:37:08.208Z,122.10
2019-01-28T15:39:14.467Z,128.60
2019-01-28T15:41:22.193Z,142.77
2019-01-28T15:43:29.369Z,114.93
2019-01-28T15:45:39.102Z,131.00
2019-01-28T15:47:45.468Z,142.80
2019-01-28T15:49:52.735Z,135.27
2019-01-28T15:51:59.088Z,136.90
2019-01-28T15:54:08.110Z,133.30
2019-01-28T15:56:15.129Z,141.50
2019-01-28T15:58:21.368Z,132.30
2019-01-28T16:00:36.689Z,128.83
2019-01-28T16:02:44.839Z,135.83
2019-01-28T16:04:51.237Z,136.83
2019-01-28T16:06:57.549Z,138.90
2019-01-28T16:09:05.349Z,144.40
2019-01-28T16:11:12.417Z,153.47
2019-01-28T16:13:18.929Z,132.53
2019-01-28T16:15:36.008Z,137.50
2019-01-28T16:17:42.686Z,151.13
2019-01-28T16:19:49.089Z,196.70
2019-01-28T16:21:56.373Z,198.27
2019-01-28T16:24:03.529Z,300.13
2019-01-28T16:26:10.009Z,185.77
2019-01-28T16:28:16.651Z,171.83
2019-01-28T16:30:28.609Z,152.73
2019-01-28T16:32:35.049Z,144.77
2019-01-28T16:34:56.350Z,143.80
2019-01-28T16:37:03.009Z,119.17
2019-01-28T16:39:09.748Z,132.73
2019-01-28T16:41:16.628Z,121.80
2019-01-28T16:43:23.748Z,128.27
2019-01-28T16:45:31.551Z,130.17
2019-01-28T16:47:38.008Z,115.63
2019-01-28T16:49:44.448Z,114.37
2019-01-28T16:51:51.089Z,118.57
2019-01-28T16:53:58.076Z,119.90
2019-01-28T16:56:05.116Z,134.73
2019-01-28T16:58:13.280Z,122.97
2019-01-28T17:00:29.568Z,127.00
2019-01-28T17:02:36.449Z,131.97
2019-01-28T17:04:43.030Z,163.97
2019-01-28T17:06:49.670Z,138.23
2019-01-28T17:09:01.009Z,152.40
2019-01-28T17:11:09.636Z,138.30
2019-01-28T17:13:19.770Z,131.13
2019-01-28T17:15:29.008Z,124.13
2019-01-28T17:17:35.996Z,113.90
2019-01-28T17:19:42.782Z,112.20
2019-01-28T17:21:49.549Z,110.13
2019-01-28T17:23:56.397Z,108.70
2019-01-28T17:26:03.258Z,113.10
2019-01-28T17:28:09.968Z,139.30
2019-01-28T17:30:26.630Z,182.50
2019-01-28T17:32:33.029Z,184.17
2019-01-28T17:34:42.717Z,185.33
2019-01-28T17:39:24.445Z,125.57
2019-01-28T17:41:30.951Z,113.93
2019-01-28T17:43:37.903Z,119.67
2019-01-28T17:45:44.769Z,168.17
2019-01-28T17:47:51.688Z,165.77
2019-01-28T17:52:27.488Z,122.17
2019-01-28T17:54:34.449Z,108.03
2019-01-28T17:56:42.048Z,119.23
2019-01-28T17:58:49.181Z,119.50
2019-01-28T18:00:56.910Z,110.70
2019-01-28T18:03:04.249Z,94.63
2019-01-28T18:05:11.708Z,105.17
2019-01-28T18:07:19.188Z,105.23
2019-01-28T18:09:26.489Z,102.57
2019-01-28T18:11:34.008Z,111.03
2019-01-28T18:13:40.849Z,102.10
2019-01-28T18:15:47.629Z,109.77
2019-01-28T18:18:01.528Z,117.43
2019-01-28T18:20:16.110Z,105.33
2019-01-28T18:22:23.152Z,97.93
2019-01-28T18:24:29.949Z,93.47
2019-01-28T18:26:36.501Z,107.43
2019-01-28T18:28:43.369Z,96.40
2019-01-28T18:30:51.270Z,100.67
2019-01-28T18:32:58.468Z,94.83
2019-01-28T18:35:07.834Z,100.43
2019-01-28T18:37:15.190Z,100.93
2019-01-28T18:39:22.590Z,102.70
2019-01-28T18:41:29.989Z,99.03
2019-01-28T18:43:37.288Z,107.43
2019-01-28T18:45:46.009Z,138.80
2019-01-28T18:47:52.868Z,132.80
2019-01-28T18:49:59.637Z,108.97
2019-01-28T18:52:06.368Z,107.87
2019-01-28T18:54:13.389Z,105.13
2019-01-28T18:56:19.948Z,108.47
2019-01-28T18:58:27.488Z,107.83
2019-01-28T19:00:35.737Z,102.83
2019-01-28T19:02:42.528Z,102.50
2019-01-28T19:04:50.848Z,95.40
2019-01-28T19:07:02.022Z,101.63
2019-01-28T19:09:10.988Z,107.93
2019-01-28T19:11:19.632Z,100.10
2019-01-28T19:13:34.068Z,95.30
2019-01-28T19:15:42.608Z,102.13
2019-01-28T19:17:54.015Z,87.70
2019-01-28T19:20:23.108Z,94.40
2019-01-28T19:22:29.949Z,98.87
2019-01-28T19:24:36.850Z,102.97
2019-01-28T19:26:45.049Z,99.10
2019-01-28T19:28:52.048Z,101.80
2019-01-28T19:30:58.871Z,112.50
2019-01-28T19:33:05.708Z,115.63
2019-01-28T19:35:12.677Z,129.37
2019-01-28T19:37:20.569Z,122.87
2019-01-28T19:39:27.427Z,121.63
2019-01-28T19:41:34.848Z,129.93
2019-01-28T19:43:41.835Z,115.07
2019-01-28T19:45:48.728Z,108.50
2019-01-28T19:47:55.770Z,113.77
2019-01-28T19:50:02.728Z,110.73
2019-01-28T19:52:10.055Z,106.90
2019-01-28T19:54:16.816Z,115.20
2019-01-28T19:56:23.675Z,119.93
2019-01-28T19:58:31.040Z,125.83
2019-01-28T20:00:37.589Z,117.93
2019-01-28T20:02:44.473Z,112.47
2019-01-28T20:04:51.128Z,104.13
2019-01-28T20:06:57.728Z,105.17
2019-01-28T20:09:06.309Z,101.17
2019-01-28T20:11:14.956Z,112.90
2019-01-28T20:13:21.629Z,106.03
2019-01-28T20:15:29.216Z,103.53
2019-01-28T20:17:36.570Z,105.97
2019-01-28T20:19:43.709Z,91.17
2019-01-28T20:21:50.548Z,108.00
2019-01-28T20:23:57.630Z,102.87
2019-01-28T20:26:04.497Z,108.00
2019-01-28T20:28:11.464Z,107.37
2019-01-28T20:30:27.012Z,106.43
2019-01-28T20:32:34.928Z,108.53
2019-01-28T20:34:43.484Z,113.50
2019-01-28T20:36:50.349Z,138.60
2019-01-28T20:38:58.269Z,132.67
2019-01-28T20:41:06.689Z,130.07
2019-01-28T20:43:14.069Z,110.53
2019-01-28T20:45:29.690Z,103.23
2019-01-28T20:47:39.210Z,99.50
2019-01-28T20:49:47.389Z,115.27
2019-01-28T20:51:54.481Z,105.27
2019-01-28T20:54:01.360Z,106.27
2019-01-28T20:56:09.251Z,106.90
2019-01-28T20:58:16.450Z,100.37
2019-01-28T21:00:29.024Z,97.70
2019-01-28T21:02:36.446Z,98.30
2019-01-28T21:04:43.463Z,106.27
2019-01-28T21:06:50.331Z,105.70
2019-01-28T21:08:57.729Z,121.50
2019-01-28T21:11:05.028Z,107.37
2019-01-28T21:13:11.912Z,101.33
2019-01-28T21:15:19.656Z,99.57
2019-01-28T21:17:27.461Z,101.00
2019-01-28T21:19:34.481Z,99.07
2019-01-28T21:21:41.940Z,87.27
2019-01-28T21:23:51.551Z,97.40
2019-01-28T21:25:58.913Z,90.57
2019-01-28T21:28:06.171Z,93.13
2019-01-28T21:30:22.471Z,85.60
2019-01-28T21:32:29.373Z,86.73
2019-01-28T21:34:35.991Z,99.90
2019-01-28T21:36:50.191Z,94.20
2019-01-28T21:38:56.672Z,93.60
2019-01-28T21:41:03.171Z,92.03
2019-01-28T21:43:09.738Z,89.80
2019-01-28T21:45:16.911Z,95.80
2019-01-28T21:47:23.679Z,90.67
2019-01-28T21:49:30.427Z,104.43
2019-01-28T21:51:38.450Z,100.00
2019-01-28T21:53:44.851Z,96.30
2019-01-28T21:55:51.410Z,104.37
2019-01-28T21:57:57.951Z,110.33
2019-01-28T22:00:06.198Z,97.70
2019-01-28T22:02:13.733Z,90.50
2019-01-28T22:04:20.051Z,96.03
2019-01-28T22:06:26.413Z,90.57
2019-01-28T22:08:32.971Z,91.47
2019-01-28T22:10:39.570Z,103.23
2019-01-28T22:12:45.974Z,92.13
2019-01-28T22:14:52.230Z,116.53
2019-01-28T22:16:58.830Z,101.97
2019-01-28T22:19:05.152Z,98.53
2019-01-28T22:21:12.951Z,112.73
2019-01-28T22:23:22.770Z,100.00
2019-01-28T22:25:34.092Z,101.87
2019-01-28T22:27:41.711Z,108.13
2019-01-28T22:29:52.090Z,109.13
2019-01-28T22:31:58.659Z,99.73
2019-01-28T22:34:05.131Z,106.80
2019-01-28T22:36:11.850Z,106.43
2019-01-28T22:38:18.331Z,106.03
2019-01-28T22:40:24.788Z,98.00
2019-01-28T22:42:32.749Z,101.90
2019-01-28T22:44:39.092Z,103.20
2019-01-28T22:46:45.469Z,102.83
2019-01-28T22:48:52.529Z,100.30
2019-01-28T22:50:58.828Z,96.37
2019-01-28T22:53:07.018Z,94.27
2019-01-28T22:55:20.497Z,100.73
2019-01-28T22:57:28.090Z,89.00
2019-01-28T22:59:34.609Z,95.93
2019-01-28T23:01:41.273Z,112.90
2019-01-28T23:03:48.209Z,106.90
2019-01-28T23:05:54.969Z,111.43
2019-01-28T23:08:02.611Z,108.17
2019-01-28T23:10:09.861Z,91.67
2019-01-28T23:12:16.408Z,92.60
2019-01-28T23:14:23.408Z,91.47
2019-01-28T23:16:30.448Z,96.17
2019-01-28T23:18:36.769Z,89.03
2019-01-28T23:20:44.088Z,96.10
2019-01-28T23:22:50.475Z,89.70
2019-01-28T23:24:56.969Z,85.83
2019-01-28T23:27:03.989Z,86.80
2019-01-28T23:29:11.531Z,93.27
2019-01-28T23:31:17.869Z,86.37
2019-01-28T23:33:25.748Z,86.93
2019-01-28T23:35:34.069Z,86.10
2019-01-28T23:44:07.809Z,104.90
2019-01-28T23:46:18.491Z,103.97
2019-01-28T23:48:30.868Z,103.47
2019-01-28T23:50:38.488Z,99.13
2019-01-28T23:52:44.788Z,98.00
2019-01-28T23:54:51.059Z,93.97
2019-01-28T23:56:58.249Z,96.43
2019-01-28T23:59:05.868Z,98.17
